This is the latest recevied weather packets stored in our database for station/object SQ7ACP-3. If no packets are shown the sender has not sent any weather packets the latest 10 day(s).
| Time | Temp. | Humidity | Pressure | Rain* | Wind** | Luminosity | Snow |
|---|---|---|---|---|---|---|---|
| 1778011883 | 17.78° C | 43% | 1004.8 hPa | 0 mm | - | - | - |
| 1778011267 | 18.33° C | 39% | 1004.7 hPa | 0 mm | - | - | - |
| 1778010041 | 18.89° C | 36% | 1004.7 hPa | 0 mm | - | - | - |
| 1778009428 | 20° C | 32% | 1004.8 hPa | 0 mm | - | - | - |
| 1778008818 | 20° C | 32% | 1004.8 hPa | 0 mm | - | - | - |
| 1778005034 | 21.67° C | 29% | 1004.5 hPa | 0 mm | - | - | - |
| 1778004432 | 22.22° C | 29% | 1004.4 hPa | 0 mm | - | - | - |
| 1778003819 | 22.78° C | 28% | 1004.3 hPa | 0 mm | - | - | - |
| 1778003214 | 23.89° C | 26% | 1004.3 hPa | 0 mm | - | - | - |
| 1778002003 | 25° C | 23% | 1004.3 hPa | 0 mm | - | - | - |
| 1778001391 | 25° C | 23% | 1004.3 hPa | 0 mm | - | - | - |
| 1778000790 | 25.56° C | 23% | 1004.3 hPa | 0 mm | - | - | - |
| 1777999536 | 25.56° C | 26% | 1004.4 hPa | 0 mm | - | - | - |
| 1777998917 | 25.56° C | 28% | 1004.4 hPa | 0 mm | - | - | - |
| 1777998316 | 25.56° C | 27% | 1004.5 hPa | 0 mm | - | - | - |
| 1777997706 | 25.56° C | 26% | 1004.6 hPa | 0 mm | - | - | - |
| 1777996494 | 25.56° C | 27% | 1004.7 hPa | 0 mm | - | - | - |
| 1777995888 | 25.56° C | 26% | 1004.8 hPa | 0 mm | - | - | - |
| 1777995286 | 25.56° C | 25% | 1005.2 hPa | 0 mm | - | - | - |
| 1777991149 | 25.56° C | 26% | 1005.6 hPa | 0 mm | - | - | - |
| 1777989932 | 25.56° C | 27% | 1005.8 hPa | 0 mm | - | - | - |
| 1777988640 | 26.11° C | 27% | 1005.8 hPa | 0 mm | - | - | - |
| 1777988043 | 26.11° C | 27% | 1005.9 hPa | 0 mm | - | - | - |
| 1777987433 | 26.67° C | 24% | 1005.9 hPa | 0 mm | - | - | - |
| 1777986828 | 26.11° C | 23% | 1006 hPa | 0 mm | - | - | - |
* Rain latest hour (hover to see other rain measurements)
** Current wind speed in m/s (hover to see current wind gust speed)